Time;durP1;ratioP1;P1;durP2;ratioP2;P2;SDS_P1;SDS_P2;PMS_P1;PMS_P2;Temp;Humidity;BMP_temperature;BMP_pressure;BME280_temperature;BME280_humidity;BME280_pressure;Samples;Min_cycle;Max_cycle;Signal;HPM_P1;HPM_P2
2024/01/03 00:01:42;;;;;;;12.05;1.50;;;;;;;12.72;79.54;98050.97;8356788;28;20037;-59
2024/01/03 00:05:44;;;;;;;12.35;1.40;;;;;;;12.69;79.74;98041.38;8356180;28;20079;-58
2024/01/03 00:09:44;;;;;;;12.95;1.48;;;;;;;12.64;79.88;98032.22;8351944;28;20380;-61
2024/01/03 00:14:03;;;;;;;8.13;1.55;;;;;;;12.57;80.27;98047.69;8301795;28;20052;-61
2024/01/03 00:18:05;;;;;;;8.65;1.33;;;;;;;12.38;81.38;98048.56;8310793;28;20115;-62
2024/01/03 00:22:10;;;;;;;10.18;1.23;;;;;;;12.38;80.37;98059.41;8299845;28;20518;-62
2024/01/03 00:26:10;;;;;;;;;;;;;;;12.26;81.17;98050.28;8299806;28;20069;-61
2024/01/03 00:30:14;;;;;;;9.05;1.27;;;;;;;12.32;80.17;98050.22;8299721;28;20007;-62
2024/01/03 00:34:36;;;;;;;7.32;0.93;;;;;;;12.33;80.15;98056.50;8256648;28;20625;-63
2024/01/03 00:38:38;;;;;;;8.18;0.80;;;;;;;12.35;80.11;98051.72;8236571;28;20562;-61
2024/01/03 00:42:39;;;;;;;3.30;0.52;;;;;;;12.26;81.00;98052.97;8254923;28;20307;-61
2024/01/03 00:46:40;;;;;;;5.97;0.80;;;;;;;12.26;81.70;98082.78;8237051;28;20037;-61
2024/01/03 00:50:40;;;;;;;11.10;1.15;;;;;;;12.25;82.75;98086.50;8265968;28;20375;-61
2024/01/03 00:54:42;;;;;;;7.38;0.85;;;;;;;12.09;83.84;98065.28;8284110;28;20418;-61
2024/01/03 00:58:42;;;;;;;3.97;0.70;;;;;;;12.14;84.74;98093.38;8257888;28;20041;-60
2024/01/03 01:02:44;;;;;;;2.45;0.68;;;;;;;12.21;84.61;98101.53;8298716;28;20361;-61
2024/01/03 01:06:45;;;;;;;4.22;0.70;;;;;;;12.26;84.25;98093.59;8305688;28;20495;-62
2024/01/03 01:10:45;;;;;;;5.50;0.82;;;;;;;12.21;84.32;98107.78;8314940;28;20737;-60
2024/01/03 01:14:46;;;;;;;4.43;0.85;;;;;;;12.04;86.08;98111.13;8297500;28;20137;-61
2024/01/03 01:18:46;;;;;;;3.72;0.65;;;;;;;11.93;86.92;98119.84;8296966;28;20037;-61
2024/01/03 01:22:47;;;;;;;3.58;0.57;;;;;;;11.85;87.67;98129.00;8296595;28;20330;-61
2024/01/03 01:26:47;;;;;;;5.65;0.60;;;;;;;11.77;88.36;98132.75;8296456;28;20261;-61
2024/01/03 01:30:48;;;;;;;1.98;0.45;;;;;;;11.71;89.55;98139.00;8296971;28;20304;-61
2024/01/03 01:34:48;;;;;;;4.10;1.10;;;;;;;11.59;91.03;98123.56;8297130;28;20300;-61
2024/01/03 01:38:50;;;;;;;7.05;0.55;;;;;;;11.66;91.71;98168.56;8339163;28;20068;-60
2024/01/03 01:42:50;;;;;;;3.55;0.65;;;;;;;11.65;93.31;98155.22;8355840;28;20048;-58
2024/01/03 01:46:52;;;;;;;6.35;0.70;;;;;;;11.62;93.61;98155.63;8357165;28;20040;-59
2024/01/03 01:50:53;;;;;;;6.30;0.90;;;;;;;11.61;93.15;98154.75;8362005;28;20055;-58
2024/01/03 01:54:53;;;;;;;6.60;0.82;;;;;;;11.64;92.69;98157.09;8361616;28;20116;-58
2024/01/03 01:58:54;;;;;;;7.55;1.00;;;;;;;11.61;92.63;98162.88;8361545;28;20037;-59
2024/01/03 02:02:54;;;;;;;5.32;0.98;;;;;;;11.58;92.60;98155.16;8361424;28;20593;-60
2024/01/03 02:06:55;;;;;;;7.57;0.93;;;;;;;11.63;92.08;98150.03;8316086;28;20044;-60
2024/01/03 02:10:55;;;;;;;7.32;1.23;;;;;;;11.65;91.96;98169.56;8287115;28;20300;-61
2024/01/03 02:14:56;;;;;;;7.28;0.98;;;;;;;11.57;92.68;98164.34;8305319;28;20033;-61
2024/01/03 02:18:56;;;;;;;5.68;0.70;;;;;;;11.59;92.72;98173.06;8305173;28;20086;-60
2024/01/03 02:22:57;;;;;;;7.03;0.95;;;;;;;11.59;92.69;98159.53;8304074;28;20311;-60
2024/01/03 02:26:58;;;;;;;11.45;1.90;;;;;;;11.53;93.32;98165.75;8305643;28;20049;-60
2024/01/03 02:30:59;;;;;;;6.13;0.82;;;;;;;11.59;92.80;98178.47;8304199;28;20040;-60
2024/01/03 02:34:59;;;;;;;10.18;1.15;;;;;;;11.66;91.86;98168.56;8337533;28;20123;-61
2024/01/03 02:39:00;;;;;;;4.13;0.82;;;;;;;11.77;90.08;98173.34;8347854;28;20087;-61
2024/01/03 02:43:01;;;;;;;9.82;1.00;;;;;;;11.83;89.04;98177.09;8340604;28;20072;-60
2024/01/03 02:47:01;;;;;;;5.55;0.70;;;;;;;11.79;88.70;98190.22;8303447;28;20261;-60
2024/01/03 02:51:02;;;;;;;3.08;0.85;;;;;;;11.73;88.66;98177.53;8303388;28;20319;-60
2024/01/03 02:55:02;;;;;;;3.15;0.60;;;;;;;11.70;87.89;98202.28;8303318;28;20716;-60
2024/01/03 02:59:03;;;;;;;4.05;0.57;;;;;;;11.72;88.31;98178.53;8302447;28;20353;-60
2024/01/03 03:03:03;;;;;;;5.13;0.80;;;;;;;11.56;89.93;98192.41;8302828;28;20073;-61
2024/01/03 03:07:04;;;;;;;6.40;0.80;;;;;;;11.35;92.53;98170.91;8301927;28;20424;-61
2024/01/03 03:11:06;;;;;;;3.60;0.70;;;;;;;11.23;94.89;98194.16;8321452;28;20075;-59
2024/01/03 03:15:07;;;;;;;6.13;0.80;;;;;;;11.17;96.64;98195.00;8374529;28;20045;-58
2024/01/03 03:19:08;;;;;;;6.40;1.52;;;;;;;11.18;97.19;98193.94;8358724;28;20053;-57
2024/01/03 03:23:08;;;;;;;10.10;1.23;;;;;;;11.17;97.17;98178.75;8358873;28;20561;-59
2024/01/03 03:27:09;;;;;;;6.10;1.20;;;;;;;11.10;98.12;98177.06;8358854;28;20053;-58
2024/01/03 03:31:10;;;;;;;12.38;1.63;;;;;;;11.18;97.53;98180.41;8357221;28;20095;-58
2024/01/03 03:35:11;;;;;;;9.25;1.60;;;;;;;11.27;96.98;98198.16;8312717;28;20052;-60
2024/01/03 03:39:11;;;;;;;13.48;1.35;;;;;;;11.47;95.13;98207.16;8302136;28;20056;-60
2024/01/03 03:43:12;;;;;;;10.30;2.20;;;;;;;11.47;95.55;98184.69;8302224;28;20420;-61
2024/01/03 03:47:12;;;;;;;12.27;1.60;;;;;;;11.46;95.83;98177.59;8301872;28;20029;-61
2024/01/03 03:51:13;;;;;;;7.55;1.42;;;;;;;11.40;95.68;98184.66;8300116;28;20047;-61
2024/01/03 03:55:13;;;;;;;8.07;1.20;;;;;;;11.37;95.71;98190.47;8300366;28;20283;-61
2024/01/03 03:59:14;;;;;;;10.88;1.55;;;;;;;11.24;97.40;98189.59;8283038;28;25071;-61
2024/01/03 04:03:14;;;;;;;10.60;1.42;;;;;;;11.19;98.09;98198.31;8345009;28;20098;-59
2024/01/03 04:07:15;;;;;;;8.40;1.20;;;;;;;11.10;99.77;98199.50;8357617;28;20037;-58
2024/01/03 04:11:15;;;;;;;9.23;1.38;;;;;;;11.07;100.00;98194.50;8333265;28;20071;-61
2024/01/03 04:15:16;;;;;;;7.38;1.63;;;;;;;11.10;99.78;98194.09;8303803;28;20136;-59
2024/01/03 04:19:16;;;;;;;8.63;1.33;;;;;;;11.18;98.55;98204.75;8333227;28;20415;-61
2024/01/03 04:23:16;;;;;;;9.05;1.55;;;;;;;11.24;97.11;98193.13;8300957;28;20325;-61
2024/01/03 04:27:17;;;;;;;8.82;1.55;;;;;;;11.28;96.94;98197.09;8300463;28;20143;-61
2024/01/03 04:31:17;;;;;;;6.85;1.30;;;;;;;11.35;96.83;98203.38;8314841;28;20029;-59
2024/01/03 04:35:18;;;;;;;16.98;1.98;;;;;;;11.26;97.16;98209.16;8312288;28;20385;-61
2024/01/03 04:39:18;;;;;;;10.98;1.83;;;;;;;11.20;97.77;98204.56;8293305;28;20071;-61
2024/01/03 04:43:19;;;;;;;10.90;1.73;;;;;;;11.26;96.78;98219.97;8300451;28;20041;-61
2024/01/03 04:47:19;;;;;;;11.07;1.30;;;;;;;11.21;96.41;98217.88;8302144;28;20048;-61
2024/01/03 04:51:20;;;;;;;10.60;1.70;;;;;;;11.22;96.43;98211.44;8300104;28;20052;-61
2024/01/03 04:55:20;;;;;;;7.78;1.08;;;;;;;11.34;96.04;98223.34;8298645;28;20363;-61
2024/01/03 04:59:20;;;;;;;13.27;1.80;;;;;;;11.42;96.23;98225.03;8298928;28;20045;-61
2024/01/03 05:03:23;;;;;;;7.47;1.20;;;;;;;11.46;97.45;98227.16;8344186;28;20037;-59
2024/01/03 05:07:24;;;;;;;7.47;1.42;;;;;;;11.43;98.44;98214.03;8360786;28;20495;-59
2024/01/03 05:11:24;;;;;;;9.85;1.20;;;;;;;11.37;98.97;98205.88;8309880;28;20642;-61
2024/01/03 05:15:25;;;;;;;13.77;1.52;;;;;;;11.31;99.77;98210.22;8299518;28;20037;-60
2024/01/03 05:19:25;;;;;;;16.45;1.80;;;;;;;11.31;99.80;98210.22;8299753;28;20037;-61
2024/01/03 05:23:26;;;;;;;17.60;2.15;;;;;;;11.50;96.87;98223.00;8303716;28;20040;-61
2024/01/03 05:27:26;;;;;;;15.50;2.33;;;;;;;11.57;96.18;98215.75;8305238;28;20430;-61
2024/01/03 05:31:26;;;;;;;14.18;1.67;;;;;;;11.56;96.79;98205.13;8304495;28;20761;-60
2024/01/03 05:35:27;;;;;;;14.80;2.30;;;;;;;11.61;95.66;98195.34;8303862;28;20473;-61
2024/01/03 05:39:27;;;;;;;18.55;2.67;;;;;;;11.65;94.72;98188.53;8325295;28;20048;-58
2024/01/03 05:43:28;;;;;;;15.10;2.05;;;;;;;11.64;94.46;98197.69;8358735;28;20041;-58
2024/01/03 05:47:28;;;;;;;12.00;1.83;;;;;;;11.67;93.37;98186.44;8353625;28;20582;-58
2024/01/03 05:51:29;;;;;;;11.75;1.70;;;;;;;11.66;93.72;98182.09;8380249;28;20041;-58
2024/01/03 05:55:29;;;;;;;11.10;1.65;;;;;;;11.70;93.00;98169.81;8381951;28;20071;-61
2024/01/03 05:59:30;;;;;;;11.65;2.17;;;;;;;11.76;92.24;98163.56;8379149;28;20037;-60
2024/01/03 06:03:30;;;;;;;15.85;1.88;;;;;;;11.76;91.82;98168.16;8339052;28;20118;-60
2024/01/03 06:07:31;;;;;;;13.95;2.00;;;;;;;11.72;91.36;98183.94;8319805;28;20623;-60
2024/01/03 06:11:31;;;;;;;13.13;1.73;;;;;;;11.74;91.02;98179.19;8320306;28;20044;-60
2024/01/03 06:15:32;;;;;;;8.75;1.65;;;;;;;11.68;91.13;98171.88;8328452;28;20032;-60
2024/01/03 06:19:32;;;;;;;9.55;1.95;;;;;;;11.72;90.90;98167.72;8330091;28;20079;-60
2024/01/03 06:23:37;;;;;;;17.17;2.40;;;;;;;11.68;90.89;98188.09;8319043;28;20033;-60
2024/01/03 06:27:37;;;;;;;14.25;1.52;;;;;;;11.82;89.25;98192.53;8315598;28;20101;-59
2024/01/03 06:31:37;;;;;;;12.32;1.98;;;;;;;11.93;88.39;98191.09;8309588;28;20589;-59
2024/01/03 06:35:38;;;;;;;19.08;1.88;;;;;;;11.98;90.26;98198.59;8302330;28;20114;-60
2024/01/03 06:39:38;;;;;;;13.80;2.45;;;;;;;11.84;93.50;98185.03;8267228;28;20404;-59
2024/01/03 06:43:39;;;;;;;14.85;2.67;;;;;;;11.79;94.24;98182.13;8272895;28;20060;-60
2024/01/03 06:47:41;;;;;;;12.05;1.48;;;;;;;11.71;94.98;98189.56;8257717;28;20034;-59
2024/01/03 06:51:43;;;;;;;9.60;2.00;;;;;;;11.69;94.98;98178.13;8234088;28;20178;-60
2024/01/03 06:55:44;;;;;;;11.98;2.65;;;;;;;11.66;93.46;98187.50;8256772;28;20036;-59
2024/01/03 06:59:44;;;;;;;11.38;1.10;;;;;;;11.84;91.05;98182.31;8263919;28;20150;-60
2024/01/03 07:03:44;;;;;;;13.15;2.00;;;;;;;11.77;90.99;98186.88;8260498;28;20040;-60
2024/01/03 07:07:45;;;;;;;16.98;1.85;;;;;;;11.88;88.83;98186.28;8302809;28;20052;-60
2024/01/03 07:11:45;;;;;;;9.63;1.45;;;;;;;12.04;87.41;98201.28;8302589;28;20519;-61
2024/01/03 07:15:46;;;;;;;9.38;1.77;;;;;;;12.10;89.72;98213.19;8346006;28;20052;-61
2024/01/03 07:19:46;;;;;;;10.80;1.23;;;;;;;12.01;92.27;98214.44;8358964;28;20127;-61
2024/01/03 07:23:46;;;;;;;9.82;1.63;;;;;;;11.83;93.96;98207.72;8346420;28;20059;-61
2024/01/03 07:27:47;;;;;;;3.63;0.80;;;;;;;11.66;93.46;98211.00;8358993;28;20037;-61
2024/01/03 07:31:47;;;;;;;5.93;0.60;;;;;;;11.54;92.15;98199.91;8359081;28;20456;-61
2024/01/03 07:35:48;;;;;;;2.70;0.50;;;;;;;11.42;93.55;98188.00;8358019;28;20044;-61
2024/01/03 07:39:48;;;;;;;8.38;1.00;;;;;;;11.36;95.91;98191.53;8358351;28;20084;-61
2024/01/03 07:43:49;;;;;;;7.63;0.93;;;;;;;11.38;96.27;98212.97;8357459;28;20033;-61
2024/01/03 07:47:50;;;;;;;5.80;1.35;;;;;;;11.53;92.50;98222.59;8358452;28;20037;-61
2024/01/03 07:51:51;;;;;;;6.18;1.10;;;;;;;11.60;91.32;98218.06;8358000;28;20029;-61
2024/01/03 07:55:53;;;;;;;6.90;0.90;;;;;;;11.62;91.08;98248.47;8357758;28;20082;-61
2024/01/03 07:59:53;;;;;;;11.25;1.27;;;;;;;11.54;90.76;98245.91;8357838;28;20041;-61
2024/01/03 08:03:54;;;;;;;11.90;1.75;;;;;;;11.52;90.98;98247.97;8357658;28;20037;-61
2024/01/03 08:07:54;;;;;;;9.57;1.40;;;;;;;11.58;90.33;98247.16;8325996;28;20451;-60
2024/01/03 08:11:55;;;;;;;11.45;1.23;;;;;;;11.60;90.51;98255.09;8341803;28;20048;-60
2024/01/03 08:15:56;;;;;;;12.07;1.48;;;;;;;11.62;89.98;98269.28;8356610;28;20120;-61
2024/01/03 08:19:57;;;;;;;14.45;1.27;;;;;;;11.79;87.98;98274.16;8338864;28;20130;-61
2024/01/03 08:23:57;;;;;;;10.73;1.33;;;;;;;11.72;88.82;98269.75;8355887;28;20037;-62
2024/01/03 08:27:58;;;;;;;9.77;1.35;;;;;;;11.68;89.52;98277.41;8356976;28;20041;-61
2024/01/03 08:31:58;;;;;;;8.82;1.45;;;;;;;11.59;89.30;98278.59;8356387;28;20036;-62
2024/01/03 08:36:00;;;;;;;5.80;0.82;;;;;;;11.07;93.89;98270.19;8375521;28;20131;-61
2024/01/03 08:40:01;;;;;;;1.95;0.35;;;;;;;10.73;93.63;98272.88;8359959;28;20049;-61
2024/01/03 08:44:03;;;;;;;7.80;3.28;;;;;;;10.55;99.09;98302.25;8375475;28;20059;-61
2024/01/03 08:48:06;;;;;;;5.00;1.25;;;;;;;10.37;100.00;98304.56;8366523;28;20119;-61
2024/01/03 08:52:06;;;;;;;7.03;1.92;;;;;;;10.40;100.00;98298.78;8363667;28;20041;-60
2024/01/03 08:56:15;;;;;;;6.40;1.20;;;;;;;10.51;100.00;98309.06;8367824;28;20040;-61
2024/01/03 09:00:16;;;;;;;6.80;1.13;;;;;;;10.60;100.00;98310.59;8352228;28;20058;-61
2024/01/03 09:04:16;;;;;;;4.28;0.80;;;;;;;10.59;100.00;98330.56;8348636;28;20094;-59
2024/01/03 09:08:17;;;;;;;3.80;0.90;;;;;;;10.65;100.00;98318.13;8346425;28;20234;-59
2024/01/03 09:12:18;;;;;;;9.40;1.27;;;;;;;10.85;100.00;98330.78;8348228;28;20043;-59
2024/01/03 09:16:20;;;;;;;6.88;1.40;;;;;;;11.02;100.00;98323.22;8347822;28;20087;-58
2024/01/03 09:20:20;;;;;;;5.93;1.45;;;;;;;11.22;100.00;98319.59;8347449;28;20066;-58
2024/01/03 09:24:21;;;;;;;13.32;1.80;;;;;;;11.53;100.00;98325.41;8349514;28;20045;-61
2024/01/03 09:28:24;;;;;;;12.98;2.17;;;;;;;13.21;91.83;98311.63;8350536;28;20447;-59
2024/01/03 09:32:24;;;;;;;8.98;1.45;;;;;;;13.84;83.29;98322.53;8349891;28;20037;-57
2024/01/03 09:36:25;;;;;;;7.10;1.27;;;;;;;13.92;81.71;98321.44;8351493;28;20110;-59
2024/01/03 09:40:25;;;;;;;25.95;5.30;;;;;;;14.40;79.24;98324.59;8349252;28;20041;-59
2024/01/03 09:44:27;;;;;;;12.77;1.48;;;;;;;14.85;76.35;98326.97;8349336;28;20037;-59
2024/01/03 09:48:27;;;;;;;15.20;1.80;;;;;;;15.00;74.92;98322.03;8370403;28;20040;-59
2024/01/03 09:52:28;;;;;;;11.70;1.85;;;;;;;15.08;74.35;98319.06;8349508;28;20037;-62
2024/01/03 09:56:29;;;;;;;11.07;1.83;;;;;;;15.18;74.65;98330.25;8350418;28;20068;-61
2024/01/03 10:00:30;;;;;;;11.73;1.98;;;;;;;15.45;74.34;98330.88;8348948;28;20037;-61
2024/01/03 10:04:31;;;;;;;7.13;1.73;;;;;;;15.70;72.28;98339.81;8349712;28;20043;-61
2024/01/03 10:08:31;;;;;;;7.90;1.27;;;;;;;15.63;72.46;98356.25;8350990;28;20399;-61
2024/01/03 10:12:32;;;;;;;8.75;1.40;;;;;;;15.84;73.32;98352.25;8358064;28;20039;-62
2024/01/03 10:16:32;;;;;;;12.77;2.10;;;;;;;14.75;76.81;98369.31;8355343;28;20040;-60
2024/01/03 10:20:34;;;;;;;10.05;1.30;;;;;;;13.36;83.52;98369.22;8354522;28;20361;-61
2024/01/03 10:24:42;;;;;;;8.65;1.42;;;;;;;15.00;78.84;98362.84;8364630;28;20048;-62
2024/01/03 10:28:43;;;;;;;10.20;1.65;;;;;;;16.03;74.33;98355.78;8369679;28;20056;-61
2024/01/03 10:32:56;;;;;;;6.07;1.25;;;;;;;14.95;76.64;98351.78;8373010;28;20507;-61
2024/01/03 10:36:58;;;;;;;10.02;1.50;;;;;;;13.94;81.66;98346.53;8362594;28;20119;-58
2024/01/03 10:40:58;;;;;;;13.98;1.58;;;;;;;15.44;76.42;98349.09;8372517;28;20444;-59
2024/01/03 10:44:59;;;;;;;10.98;1.48;;;;;;;14.50;77.69;98352.97;8373607;28;20036;-60
2024/01/03 10:49:01;;;;;;;11.90;1.77;;;;;;;13.61;82.61;98354.75;8373428;28;20115;-61
2024/01/03 10:53:08;;;;;;;10.23;1.60;;;;;;;13.71;82.82;98357.03;8373004;28;20028;-61
2024/01/03 10:57:11;;;;;;;8.60;1.58;;;;;;;14.08;79.90;98348.13;8338836;28;20454;-60
2024/01/03 11:01:18;;;;;;;8.18;1.00;;;;;;;13.99;81.26;98365.72;8353691;28;20303;-61
2024/01/03 11:05:26;;;;;;;9.00;1.50;;;;;;;14.61;78.78;98354.16;8353113;28;20033;-61
2024/01/03 11:09:27;;;;;;;11.68;1.77;;;;;;;14.29;79.08;98356.00;8346709;28;20037;-61
2024/01/03 11:13:30;;;;;;;12.88;1.48;;;;;;;13.46;83.27;98362.31;8351120;28;20037;-61
2024/01/03 11:17:33;;;;;;;8.50;1.05;;;;;;;13.60;83.42;98354.97;8358909;28;20043;-63
2024/01/03 11:21:42;;;;;;;17.48;2.00;;;;;;;13.20;86.31;98353.34;8360386;28;20049;-61
2024/01/03 11:25:48;;;;;;;13.23;1.40;;;;;;;13.94;83.50;98351.97;8352197;28;20096;-61
2024/01/03 11:29:50;;;;;;;12.18;1.90;;;;;;;14.93;78.56;98345.75;8358048;28;20037;-62
2024/01/03 11:33:51;;;;;;;11.85;1.58;;;;;;;15.50;76.39;98348.19;8373280;28;20534;-61
2024/01/03 11:37:52;;;;;;;13.13;1.55;;;;;;;15.71;74.42;98358.66;8360176;28;20431;-60
2024/01/03 11:41:52;;;;;;;13.63;2.13;;;;;;;15.90;74.12;98343.16;8354815;28;20047;-61
2024/01/03 11:46:06;;;;;;;13.40;1.98;;;;;;;14.44;77.41;98347.56;8356252;28;20043;-60
2024/01/03 11:50:09;;;;;;;14.30;2.17;;;;;;;15.12;76.76;98341.19;8351044;28;20056;-60
2024/01/03 11:54:09;;;;;;;7.38;1.42;;;;;;;15.70;73.97;98329.75;8352251;28;20466;-61
2024/01/03 11:58:13;;;;;;;12.07;1.52;;;;;;;15.83;74.12;98333.41;8352491;28;20049;-61
2024/01/03 12:02:14;;;;;;;14.25;2.08;;;;;;;15.40;74.02;98334.28;8346858;28;20041;-61
2024/01/03 12:06:19;;;;;;;9.02;1.25;;;;;;;15.04;75.12;98317.81;8350348;28;20032;-58
2024/01/03 12:10:20;;;;;;;9.43;2.40;;;;;;;14.80;75.11;98315.94;8350981;28;20036;-59
2024/01/03 12:14:21;;;;;;;15.73;1.88;;;;;;;14.45;77.62;98317.44;8363270;28;20040;-61
2024/01/03 12:18:22;;;;;;;10.43;1.30;;;;;;;14.19;77.78;98314.84;8368201;28;20502;-61
2024/01/03 12:22:23;;;;;;;12.93;1.58;;;;;;;13.86;79.82;98306.00;8366127;28;20048;-61
2024/01/03 12:26:24;;;;;;;7.20;1.20;;;;;;;13.81;79.74;98294.94;8352896;28;20947;-61
2024/01/03 12:30:25;;;;;;;16.83;1.70;;;;;;;13.69;80.63;98289.38;8345002;28;20095;-61
2024/01/03 12:34:25;;;;;;;10.10;1.70;;;;;;;13.85;80.65;98304.34;8350207;28;20395;-60
2024/01/03 12:38:27;;;;;;;9.63;1.42;;;;;;;13.82;80.05;98289.31;8354615;28;20116;-60
2024/01/03 12:42:27;;;;;;;9.95;1.88;;;;;;;14.00;80.37;98290.50;8350758;28;20044;-61
2024/01/03 12:46:27;;;;;;;11.23;1.60;;;;;;;13.69;82.55;98270.34;8350871;28;20033;-61
2024/01/03 12:50:29;;;;;;;14.10;2.03;;;;;;;13.68;82.24;98282.28;8315863;28;20055;-60
2024/01/03 12:54:30;;;;;;;7.93;1.60;;;;;;;13.89;81.41;98262.13;8346488;28;20486;-58
2024/01/03 12:58:30;;;;;;;13.57;1.83;;;;;;;14.12;78.54;98262.41;8354149;28;20486;-60
2024/01/03 13:02:31;;;;;;;14.43;2.33;;;;;;;13.81;78.93;98255.06;8358864;28;20045;-58
2024/01/03 13:06:31;;;;;;;14.65;2.05;;;;;;;13.69;79.45;98250.50;8360059;28;20037;-61
2024/01/03 13:10:32;;;;;;;17.17;1.75;;;;;;;13.64;79.87;98258.47;8345220;28;20059;-58
2024/01/03 13:14:33;;;;;;;16.48;2.30;;;;;;;13.57;79.32;98252.22;8356626;28;20037;-58
2024/01/03 13:18:35;;;;;;;16.55;1.92;;;;;;;13.55;79.61;98255.16;8357892;28;20040;-57
2024/01/03 13:22:36;;;;;;;11.55;1.50;;;;;;;13.49;79.78;98255.19;8353908;28;20146;-59
2024/01/03 13:26:36;;;;;;;11.88;2.00;;;;;;;13.23;80.78;98272.38;8356308;28;20055;-58
2024/01/03 13:30:37;;;;;;;14.93;2.97;;;;;;;13.08;81.71;98276.38;8356979;28;20551;-57
2024/01/03 13:34:37;;;;;;;12.60;2.00;;;;;;;13.00;81.71;98273.88;8356460;28;20312;-57
2024/01/03 13:38:38;;;;;;;7.68;1.50;;;;;;;12.90;82.89;98284.31;8354369;28;20048;-58
2024/01/03 13:42:38;;;;;;;10.48;1.55;;;;;;;12.82;83.61;98284.50;8356964;28;20037;-58
2024/01/03 13:46:39;;;;;;;5.88;0.82;;;;;;;12.78;83.12;98280.56;8362445;28;20427;-58
2024/01/03 13:50:39;;;;;;;5.97;1.40;;;;;;;12.77;81.99;98270.72;8363391;28;20052;-61
2024/01/03 13:54:39;;;;;;;7.13;0.95;;;;;;;12.71;82.04;98266.16;8351276;28;20053;-58
2024/01/03 13:58:45;;;;;;;6.63;0.80;;;;;;;12.71;82.54;98261.56;8355404;28;20051;-58
2024/01/03 14:02:49;;;;;;;4.03;0.55;;;;;;;12.72;83.22;98246.16;8358736;28;20047;-59
2024/01/03 14:06:51;;;;;;;7.32;0.60;;;;;;;12.67;84.58;98246.78;8356446;28;20572;-57
2024/01/03 14:10:51;;;;;;;7.00;1.25;;;;;;;12.54;87.18;98237.81;8356824;28;20028;-59
2024/01/03 14:14:51;;;;;;;9.95;1.27;;;;;;;12.50;89.04;98231.16;8356812;28;20306;-58
2024/01/03 14:18:54;;;;;;;18.02;1.75;;;;;;;12.53;89.31;98230.72;8357939;28;20400;-58
2024/01/03 14:22:54;;;;;;;7.88;1.35;;;;;;;12.54;89.73;98226.97;8335814;28;20045;-59
2024/01/03 14:26:56;;;;;;;9.55;0.70;;;;;;;12.46;89.98;98219.03;8350738;28;20348;-58
2024/01/03 14:30:56;;;;;;;7.40;0.90;;;;;;;12.49;89.94;98210.50;8341025;28;20408;-58
2024/01/03 14:34:56;;;;;;;8.57;1.73;;;;;;;12.52;89.82;98207.38;8353925;28;20409;-57
2024/01/03 14:38:57;;;;;;;18.27;1.95;;;;;;;12.54;89.59;98205.28;8355693;28;20514;-58
2024/01/03 14:43:03;;;;;;;15.35;1.85;;;;;;;12.47;89.11;98220.72;8354862;28;20445;-58
2024/01/03 14:47:04;;;;;;;15.50;1.63;;;;;;;12.47;89.00;98220.72;8350605;28;20083;-60
2024/01/03 14:51:05;;;;;;;17.45;1.95;;;;;;;12.43;89.45;98224.88;8352464;28;20601;-60
2024/01/03 14:55:05;;;;;;;15.77;1.95;;;;;;;12.38;89.29;98232.81;8335275;28;20071;-62
2024/01/03 14:59:06;;;;;;;14.15;1.58;;;;;;;12.30;89.96;98214.03;8354334;28;20049;-66
2024/01/03 15:03:07;;;;;;;7.80;1.40;;;;;;;12.37;89.26;98220.28;8352469;28;20427;-62
2024/01/03 15:07:09;;;;;;;8.02;1.40;;;;;;;12.33;89.02;98216.34;8352933;28;20144;-58
2024/01/03 15:11:10;;;;;;;10.98;1.67;;;;;;;12.31;89.06;98215.69;8352655;28;20041;-58
2024/01/03 15:15:11;;;;;;;11.70;1.77;;;;;;;12.36;88.50;98210.50;8352979;28;20041;-58
2024/01/03 15:19:11;;;;;;;11.98;1.50;;;;;;;12.42;88.20;98212.38;8352584;28;20439;-58
2024/01/03 15:23:13;;;;;;;5.22;1.10;;;;;;;12.43;87.93;98208.63;8351571;28;20087;-58
2024/01/03 15:27:14;;;;;;;7.00;1.40;;;;;;;12.35;87.96;98206.13;8352296;28;20167;-60
2024/01/03 15:31:14;;;;;;;10.77;1.42;;;;;;;12.30;88.18;98205.91;8351837;28;21649;-59
2024/01/03 15:35:15;;;;;;;11.48;1.42;;;;;;;12.20;88.27;98197.38;8352272;28;20072;-58
2024/01/03 15:39:15;;;;;;;7.68;1.45;;;;;;;12.11;88.57;98191.34;8352334;28;20075;-59
2024/01/03 15:43:17;;;;;;;9.25;1.05;;;;;;;12.06;89.33;98185.69;8350537;28;20048;-58
2024/01/03 15:47:17;;;;;;;7.07;1.17;;;;;;;12.03;89.30;98174.44;8345494;28;20033;-57
2024/01/03 15:51:18;;;;;;;10.32;1.92;;;;;;;11.87;89.83;98179.19;8349539;28;20488;-58
2024/01/03 15:55:18;;;;;;;8.32;1.75;;;;;;;11.80;90.24;98164.81;8350123;28;20040;-57
2024/01/03 15:59:20;;;;;;;11.73;1.77;;;;;;;11.78;90.04;98161.47;8345756;28;20057;-58
2024/01/03 16:03:20;;;;;;;13.32;1.88;;;;;;;11.74;89.88;98160.22;8365654;28;20037;-59
2024/01/03 16:07:21;;;;;;;14.10;1.67;;;;;;;11.73;90.29;98163.97;8350245;28;20140;-58
2024/01/03 16:11:22;;;;;;;11.68;1.88;;;;;;;11.87;89.84;98168.38;8363254;28;20134;-58
2024/01/03 16:15:23;;;;;;;14.40;2.25;;;;;;;11.96;89.45;98154.63;8365771;28;20418;-57
2024/01/03 16:19:25;;;;;;;11.75;1.80;;;;;;;12.00;89.55;98158.59;8360168;28;20045;-59
2024/01/03 16:23:26;;;;;;;7.22;2.47;;;;;;;11.86;89.22;98153.16;8348770;28;20426;-59
2024/01/03 16:27:27;;;;;;;15.35;2.42;;;;;;;11.92;89.09;98158.81;8351465;28;20055;-60
2024/01/03 16:31:28;;;;;;;13.00;2.08;;;;;;;11.86;89.43;98147.75;8351022;28;20044;-57
2024/01/03 16:35:28;;;;;;;11.68;1.65;;;;;;;11.93;88.77;98159.41;8350909;28;20460;-57
2024/01/03 16:39:31;;;;;;;10.15;1.70;;;;;;;11.80;89.16;98164.81;8350781;28;20044;-59
2024/01/03 16:43:32;;;;;;;11.98;1.83;;;;;;;11.79;88.48;98162.31;8350165;28;20045;-57
2024/01/03 16:47:36;;;;;;;8.88;1.20;;;;;;;11.63;89.68;98155.44;8350320;28;20099;-57
2024/01/03 16:51:38;;;;;;;6.80;1.10;;;;;;;11.54;90.29;98153.91;8350095;28;20491;-57
2024/01/03 16:55:40;;;;;;;6.63;1.95;;;;;;;11.45;91.35;98160.56;8350842;28;20380;-58
2024/01/03 16:59:41;;;;;;;3.88;1.00;;;;;;;11.35;92.83;98160.09;8345766;28;20414;-57
2024/01/03 17:03:42;;;;;;;5.47;0.93;;;;;;;11.34;93.81;98160.28;8350883;28;20064;-59
2024/01/03 17:07:43;;;;;;;8.32;1.40;;;;;;;11.24;94.62;98157.97;8349636;28;20037;-64
2024/01/03 17:11:43;;;;;;;11.32;1.40;;;;;;;11.19;95.08;98149.63;8350260;28;20057;-60
2024/01/03 17:15:44;;;;;;;11.68;1.98;;;;;;;11.11;95.45;98163.34;8350685;28;20577;-61
2024/01/03 17:19:44;;;;;;;9.73;1.55;;;;;;;11.16;94.61;98160.03;8355962;28;20396;-61
2024/01/03 17:23:46;;;;;;;10.25;1.23;;;;;;;11.16;93.89;98174.38;8357730;28;20072;-60
2024/01/03 17:27:47;;;;;;;13.75;1.52;;;;;;;11.12;94.10;98175.81;8374538;28;20041;-61
2024/01/03 17:31:48;;;;;;;8.95;1.13;;;;;;;11.21;92.72;98168.34;8358285;28;20060;-65
2024/01/03 17:35:48;;;;;;;6.97;1.13;;;;;;;11.37;91.03;98176.13;8354897;28;20036;-62
2024/01/03 17:39:48;;;;;;;8.77;1.38;;;;;;;11.40;90.57;98173.84;8356526;28;20472;-60
2024/01/03 17:43:49;;;;;;;7.85;1.10;;;;;;;11.42;90.13;98179.91;8342561;28;20036;-59
2024/01/03 17:47:49;;;;;;;9.20;0.73;;;;;;;11.39;89.75;98188.41;8351938;28;20419;-61
2024/01/03 17:51:51;;;;;;;9.38;1.15;;;;;;;11.46;89.93;98173.03;8354421;28;20060;-59
2024/01/03 17:55:51;;;;;;;10.23;1.20;;;;;;;11.50;88.90;98163.47;8355397;28;20040;-60
2024/01/03 17:59:52;;;;;;;4.35;1.10;;;;;;;11.59;88.41;98183.88;8351010;28;20314;-59
2024/01/03 18:03:52;;;;;;;12.27;1.38;;;;;;;11.60;88.11;98176.63;8353044;28;20091;-58
2024/01/03 18:07:53;;;;;;;8.48;1.30;;;;;;;11.66;87.35;98195.63;8353379;28;20446;-58
2024/01/03 18:11:53;;;;;;;4.43;0.90;;;;;;;11.65;87.37;98193.13;8353879;28;20041;-58
2024/01/03 18:15:54;;;;;;;8.50;1.02;;;;;;;11.61;87.04;98191.81;8355270;28;20098;-58
2024/01/03 18:19:54;;;;;;;5.47;0.80;;;;;;;11.64;87.07;98196.84;8354874;28;20033;-57
2024/01/03 18:23:55;;;;;;;8.23;1.10;;;;;;;11.60;87.46;98191.00;8354710;28;20481;-58
2024/01/03 18:27:56;;;;;;;5.05;0.77;;;;;;;11.63;87.55;98193.31;8354623;28;20036;-60
2024/01/03 18:31:56;;;;;;;5.00;1.40;;;;;;;11.57;88.01;98190.56;8351059;28;20040;-58
2024/01/03 18:35:58;;;;;;;5.57;0.70;;;;;;;11.59;88.29;98199.31;8354995;28;20036;-58
2024/01/03 18:39:58;;;;;;;3.35;0.73;;;;;;;11.61;88.35;98203.47;8354250;28;20044;-59
2024/01/03 18:43:59;;;;;;;2.63;0.50;;;;;;;11.59;89.12;98205.53;8354802;28;20063;-58
2024/01/03 18:48:00;;;;;;;5.07;0.60;;;;;;;11.56;89.63;98211.34;8354439;28;20036;-58